createdAt,value
2022-08-22T03:50:06.266Z,954.11
2022-08-22T03:51:06.253Z,954.13
2022-08-22T03:52:06.239Z,954.18
2022-08-22T03:53:06.225Z,954.15
2022-08-22T03:54:06.209Z,954.13
2022-08-22T03:55:06.200Z,954.14
2022-08-22T03:56:06.183Z,954.16
2022-08-22T03:57:06.173Z,954.12
2022-08-22T03:58:06.156Z,954.13
2022-08-22T03:59:09.840Z,954.09
2022-08-22T04:00:06.132Z,954.14
2022-08-22T04:01:06.147Z,954.1
2022-08-22T04:02:24.877Z,954.11
2022-08-22T04:03:06.100Z,954.1
2022-08-22T04:04:06.084Z,954.13
2022-08-22T04:05:06.073Z,954.16
2022-08-22T04:06:06.153Z,954.19
2022-08-22T04:07:06.052Z,954.2
2022-08-22T04:08:06.037Z,954.21
2022-08-22T04:09:06.027Z,954.2
2022-08-22T04:10:06.016Z,954.21
2022-08-22T04:11:06.003Z,954.17
2022-08-22T04:12:05.990Z,954.21
2022-08-22T04:13:05.983Z,954.23
2022-08-22T04:14:05.967Z,954.21
2022-08-22T04:15:05.960Z,954.19
2022-08-22T04:16:05.948Z,954.22
2022-08-22T04:17:05.943Z,954.23
2022-08-22T04:18:05.922Z,954.23
2022-08-22T04:19:05.917Z,954.25
2022-08-22T04:20:05.911Z,954.24
2022-08-22T04:21:05.888Z,954.27
2022-08-22T04:22:05.875Z,954.31
2022-08-22T04:23:05.867Z,954.3
2022-08-22T04:24:05.852Z,954.3
2022-08-22T04:25:07.912Z,954.31
2022-08-22T04:26:08.577Z,954.28
2022-08-22T04:27:05.821Z,954.32
2022-08-22T04:28:05.808Z,954.31
2022-08-22T04:29:05.804Z,954.34
2022-08-22T04:30:05.787Z,954.35
2022-08-22T04:31:05.779Z,954.36
2022-08-22T04:32:05.763Z,954.29
2022-08-22T04:33:05.756Z,954.39
2022-08-22T04:34:05.743Z,954.37
2022-08-22T04:35:05.739Z,954.39
2022-08-22T04:36:05.719Z,954.41
2022-08-22T04:37:05.711Z,954.43
2022-08-22T04:38:05.697Z,954.43
2022-08-22T04:39:05.693Z,954.39
2022-08-22T04:40:05.734Z,954.37
2022-08-22T04:41:05.665Z,954.39
2022-08-22T04:42:29.009Z,954.36
2022-08-22T04:43:05.641Z,954.43
2022-08-22T04:44:05.632Z,954.35
2022-08-22T04:45:05.621Z,954.35
2022-08-22T04:46:05.610Z,954.37
2022-08-22T04:47:05.599Z,954.38
2022-08-22T04:48:05.589Z,954.41
2022-08-22T04:49:05.576Z,954.41
2022-08-22T04:50:05.566Z,954.47
2022-08-22T04:51:05.555Z,954.44
2022-08-22T04:52:05.550Z,954.48
2022-08-22T04:53:05.531Z,954.47
2022-08-22T04:54:05.524Z,954.45
2022-08-22T04:55:05.511Z,954.41
2022-08-22T04:56:07.603Z,954.44
2022-08-22T04:57:05.488Z,954.45
2022-08-22T04:58:06.508Z,954.47
2022-08-22T04:59:05.466Z,954.47
2022-08-22T05:00:05.458Z,954.52
2022-08-22T05:01:05.445Z,954.46
2022-08-22T05:02:05.484Z,954.49
2022-08-22T05:03:05.424Z,954.45
2022-08-22T05:04:05.414Z,954.48
2022-08-22T05:05:05.402Z,954.44
2022-08-22T05:06:05.394Z,954.49
2022-08-22T05:07:05.379Z,954.49
2022-08-22T05:08:05.372Z,954.5
2022-08-22T05:09:05.360Z,954.48
2022-08-22T05:10:09.206Z,954.48
2022-08-22T05:11:05.337Z,954.49
2022-08-22T05:12:05.328Z,954.48
2022-08-22T05:13:05.316Z,954.48
2022-08-22T05:14:05.307Z,954.49
2022-08-22T05:15:05.294Z,954.52
2022-08-22T05:16:05.286Z,954.47
2022-08-22T05:17:05.271Z,954.51
2022-08-22T05:18:05.266Z,954.51
2022-08-22T05:19:05.252Z,954.52
2022-08-22T05:20:05.244Z,954.47
2022-08-22T05:21:05.231Z,954.53
2022-08-22T05:22:05.221Z,954.48
2022-08-22T05:23:05.767Z,954.48
2022-08-22T05:24:05.202Z,954.48
2022-08-22T05:25:05.189Z,954.45
2022-08-22T05:26:05.181Z,954.47
2022-08-22T05:27:05.169Z,954.45
2022-08-22T05:28:05.160Z,954.43
2022-08-22T05:29:05.145Z,954.46
2022-08-22T05:30:05.141Z,954.48
2022-08-22T05:31:05.125Z,954.47
2022-08-22T05:32:05.117Z,954.47
2022-08-22T05:33:05.105Z,954.49
2022-08-22T05:34:05.093Z,954.45
2022-08-22T05:35:05.090Z,954.47
2022-08-22T05:36:05.075Z,954.45
2022-08-22T05:37:05.069Z,954.43
2022-08-22T05:38:05.053Z,954.44
2022-08-22T05:39:05.043Z,954.46
2022-08-22T05:40:05.078Z,954.48
2022-08-22T05:41:05.031Z,954.51
2022-08-22T05:42:05.025Z,954.5
2022-08-22T05:43:05.007Z,954.53
2022-08-22T05:44:04.991Z,954.54
2022-08-22T05:45:04.987Z,954.51
2022-08-22T05:46:04.971Z,954.54
2022-08-22T05:47:04.971Z,954.53
2022-08-22T05:48:04.953Z,954.57
2022-08-22T05:49:04.941Z,954.56
2022-08-22T05:50:04.930Z,954.58
2022-08-22T05:51:04.921Z,954.6
2022-08-22T05:52:04.911Z,954.59
2022-08-22T05:53:04.905Z,954.58
2022-08-22T05:54:04.889Z,954.62
2022-08-22T05:55:04.883Z,954.59
2022-08-22T05:56:04.873Z,954.55
2022-08-22T05:57:07.761Z,954.54
2022-08-22T05:58:04.851Z,954.59
2022-08-22T05:59:08.141Z,954.55
2022-08-22T06:00:04.833Z,954.54
2022-08-22T06:01:04.824Z,954.55
2022-08-22T06:02:04.852Z,954.54
2022-08-22T06:03:04.803Z,954.54
2022-08-22T06:04:04.794Z,954.61
2022-08-22T06:05:07.618Z,954.59
2022-08-22T06:06:04.773Z,954.61
2022-08-22T06:07:04.765Z,954.62
2022-08-22T06:08:04.755Z,954.62
2022-08-22T06:09:04.746Z,954.65
2022-08-22T06:10:04.738Z,954.65
2022-08-22T06:11:04.728Z,954.6
2022-08-22T06:12:04.717Z,954.62
2022-08-22T06:13:04.712Z,954.65
2022-08-22T06:14:04.699Z,954.62
2022-08-22T06:15:10.502Z,954.63
2022-08-22T06:16:04.680Z,954.62
2022-08-22T06:17:04.676Z,954.64
2022-08-22T06:18:04.662Z,954.61
2022-08-22T06:19:04.657Z,954.63
2022-08-22T06:20:04.644Z,954.62
2022-08-22T06:21:04.638Z,954.61
2022-08-22T06:22:04.631Z,954.64
2022-08-22T06:23:04.623Z,954.66
2022-08-22T06:24:04.616Z,954.66
2022-08-22T06:25:04.603Z,954.65
2022-08-22T06:26:04.596Z,954.64
2022-08-22T06:27:04.587Z,954.65
2022-08-22T06:28:04.584Z,954.69
2022-08-22T06:29:04.570Z,954.69
2022-08-22T06:30:04.562Z,954.71
2022-08-22T06:31:04.568Z,954.72
2022-08-22T06:32:04.546Z,954.73
2022-08-22T06:33:04.540Z,954.76
2022-08-22T06:34:04.529Z,954.72
2022-08-22T06:35:04.523Z,954.73
2022-08-22T06:36:04.513Z,954.72
2022-08-22T06:37:04.504Z,954.72
2022-08-22T06:38:04.501Z,954.72
2022-08-22T06:39:04.490Z,954.74
2022-08-22T06:40:04.549Z,954.8
2022-08-22T06:41:04.474Z,954.76
2022-08-22T06:42:04.471Z,954.76
2022-08-22T06:43:04.458Z,954.75
2022-08-22T06:44:04.456Z,954.77
2022-08-22T06:45:04.447Z,954.8
2022-08-22T06:46:04.438Z,954.79
2022-08-22T06:47:04.428Z,954.77
2022-08-22T06:48:04.748Z,954.78
2022-08-22T06:49:04.414Z,954.76
2022-08-22T06:50:04.412Z,954.74
2022-08-22T06:51:04.403Z,954.77
2022-08-22T06:52:04.394Z,954.77
2022-08-22T06:53:04.385Z,954.76
2022-08-22T06:54:04.384Z,954.82
2022-08-22T06:55:04.376Z,954.79
2022-08-22T06:56:04.369Z,954.82
2022-08-22T06:57:04.361Z,954.8
2022-08-22T06:58:04.357Z,954.81
2022-08-22T06:59:04.349Z,954.82
2022-08-22T07:00:04.344Z,954.81
2022-08-22T07:01:05.247Z,954.82
2022-08-22T07:02:04.401Z,954.87
2022-08-22T07:03:04.328Z,954.89
2022-08-22T07:04:04.323Z,954.88
2022-08-22T07:05:04.319Z,954.89
2022-08-22T07:06:04.317Z,954.87
2022-08-22T07:07:04.306Z,954.9
2022-08-22T07:08:04.303Z,954.91
2022-08-22T07:09:05.583Z,954.95
2022-08-22T07:10:04.295Z,954.97
2022-08-22T07:11:04.290Z,954.99
2022-08-22T07:12:04.288Z,955
2022-08-22T07:13:04.281Z,955
2022-08-22T07:14:04.282Z,955.04
2022-08-22T07:15:04.277Z,955
2022-08-22T07:16:05.195Z,955.03
2022-08-22T07:17:05.191Z,955.02
2022-08-22T07:18:05.186Z,955.06
2022-08-22T07:19:05.184Z,955.06
2022-08-22T07:20:05.180Z,955.02
2022-08-22T07:21:05.179Z,955.01
2022-08-22T07:22:05.178Z,955.05
2022-08-22T07:23:05.175Z,955.05
2022-08-22T07:24:05.172Z,955.1
2022-08-22T07:25:05.170Z,954.98
2022-08-22T07:26:05.167Z,955.01
2022-08-22T07:27:05.165Z,955.07
2022-08-22T07:28:05.223Z,955.13
2022-08-22T07:29:09.053Z,955.01
2022-08-22T07:30:05.726Z,954.92
2022-08-22T07:31:05.158Z,954.96
2022-08-22T07:32:05.160Z,954.92
2022-08-22T07:33:19.029Z,954.88
2022-08-22T07:34:05.152Z,954.88
2022-08-22T07:35:05.154Z,954.88
2022-08-22T07:36:05.149Z,954.87
2022-08-22T07:37:05.149Z,954.82
2022-08-22T07:38:05.146Z,954.79
2022-08-22T07:39:05.149Z,954.78
2022-08-22T07:40:05.222Z,954.81
2022-08-22T07:41:05.145Z,954.82
2022-08-22T07:42:05.143Z,954.87
2022-08-22T07:43:05.141Z,954.82
2022-08-22T07:44:05.138Z,954.83
2022-08-22T07:45:05.142Z,954.86
2022-08-22T07:46:05.134Z,954.86
2022-08-22T07:47:05.135Z,954.86
2022-08-22T07:48:05.133Z,954.83
2022-08-22T07:49:09.730Z,954.87
2022-08-22T07:50:05.128Z,954.9
2022-08-22T07:51:05.129Z,954.85
2022-08-22T07:52:05.123Z,954.87
2022-08-22T07:53:05.127Z,954.86
2022-08-22T07:54:05.121Z,954.84
2022-08-22T07:55:05.120Z,954.86
2022-08-22T07:56:05.117Z,954.84
2022-08-22T07:57:05.122Z,954.81
2022-08-22T07:58:05.115Z,954.82
2022-08-22T07:59:09.414Z,954.84
2022-08-22T08:00:05.111Z,954.84
2022-08-22T08:01:05.129Z,954.83
2022-08-22T08:02:05.104Z,954.86
2022-08-22T08:03:05.143Z,954.88
2022-08-22T08:04:05.099Z,954.9
2022-08-22T08:05:05.097Z,954.9
2022-08-22T08:06:05.100Z,954.93
2022-08-22T08:07:05.093Z,954.94
2022-08-22T08:08:05.092Z,954.9
2022-08-22T08:09:05.087Z,954.92
2022-08-22T08:10:05.085Z,954.9
2022-08-22T08:11:05.082Z,954.92
2022-08-22T08:12:05.081Z,954.85
2022-08-22T08:13:05.076Z,954.87
2022-08-22T08:14:05.077Z,954.87
2022-08-22T08:15:05.071Z,954.88
2022-08-22T08:16:05.070Z,954.87
2022-08-22T08:17:05.067Z,954.89
2022-08-22T08:18:05.064Z,954.91
2022-08-22T08:19:05.062Z,954.9
2022-08-22T08:20:05.062Z,954.91
2022-08-22T08:21:05.069Z,954.91
2022-08-22T08:22:05.055Z,954.86
2022-08-22T08:23:05.053Z,954.89
2022-08-22T08:24:05.048Z,954.92
2022-08-22T08:25:05.044Z,954.9
2022-08-22T08:26:05.041Z,954.93
2022-08-22T08:27:05.037Z,954.89
2022-08-22T08:28:05.039Z,954.88
2022-08-22T08:29:05.032Z,954.87
2022-08-22T08:30:05.030Z,954.88
2022-08-22T08:31:05.027Z,954.9
2022-08-22T08:32:05.024Z,954.83
2022-08-22T08:33:24.147Z,954.83
2022-08-22T08:34:05.020Z,954.91
2022-08-22T08:35:05.021Z,954.88
2022-08-22T08:36:05.017Z,954.91
2022-08-22T08:37:05.012Z,954.86
2022-08-22T08:38:05.011Z,954.83
2022-08-22T08:39:05.011Z,954.86
2022-08-22T08:40:05.055Z,954.87
2022-08-22T08:41:05.004Z,954.82
2022-08-22T08:42:05.003Z,954.83
2022-08-22T08:43:05.016Z,954.88
2022-08-22T08:44:04.996Z,954.85
2022-08-22T08:45:04.993Z,954.84
2022-08-22T08:46:04.991Z,954.83
2022-08-22T08:47:04.989Z,954.9
2022-08-22T08:48:04.987Z,954.9
2022-08-22T08:49:06.328Z,954.89
2022-08-22T08:50:04.986Z,954.9
2022-08-22T08:51:04.980Z,954.9
2022-08-22T08:52:04.981Z,954.91
2022-08-22T08:53:05.383Z,954.92
2022-08-22T08:54:04.975Z,954.93
2022-08-22T08:55:10.492Z,954.98
2022-08-22T08:56:04.971Z,954.93
2022-08-22T09:40:34.781Z,954.99
2022-08-22T09:41:34.782Z,955.01
2022-08-22T09:42:34.780Z,954.99
2022-08-22T09:43:34.778Z,955
2022-08-22T09:44:34.774Z,955
2022-08-22T09:45:34.773Z,954.98
2022-08-22T09:46:36.827Z,954.99
2022-08-22T09:47:34.767Z,955
2022-08-22T09:48:34.764Z,955.04
2022-08-22T09:49:34.765Z,955
2022-08-22T09:50:34.762Z,954.99
2022-08-22T09:51:34.762Z,955
2022-08-22T09:52:36.494Z,955
2022-08-22T09:53:34.757Z,955
2022-08-22T09:54:34.756Z,955.01
2022-08-22T09:55:35.499Z,954.99
2022-08-22T09:56:34.748Z,955.03
2022-08-22T09:57:34.746Z,955.05
2022-08-22T09:58:37.684Z,955.03
2022-08-22T09:59:34.742Z,955.04
2022-08-22T10:00:34.737Z,955.04
2022-08-22T10:01:34.763Z,955.06
2022-08-22T10:02:34.824Z,955.01
2022-08-22T10:03:34.734Z,955.03
2022-08-22T10:04:34.728Z,955.05
2022-08-22T10:05:35.353Z,955.06
2022-08-22T10:06:34.723Z,955.09
2022-08-22T10:07:34.725Z,955.05
2022-08-22T10:08:34.720Z,955.06
2022-08-22T10:09:34.720Z,955.12
2022-08-22T10:10:34.714Z,955.07
2022-08-22T10:11:34.714Z,955.11
2022-08-22T10:12:36.341Z,955.1
2022-08-22T10:13:34.708Z,955.12
2022-08-22T10:14:34.708Z,955.1
2022-08-22T10:15:34.704Z,955.09
2022-08-22T10:16:34.701Z,955.1
2022-08-22T10:17:34.700Z,955.15
2022-08-22T10:18:34.696Z,955.13
2022-08-22T10:19:34.696Z,955.13
2022-08-22T10:20:34.691Z,955.13
2022-08-22T10:21:34.693Z,955.12
2022-08-22T10:22:34.690Z,955.14
2022-08-22T10:23:35.033Z,955.15
2022-08-22T10:24:36.084Z,955.16
2022-08-22T10:25:34.684Z,955.14
2022-08-22T10:26:38.479Z,955.2
2022-08-22T10:27:34.680Z,955.19
2022-08-22T10:28:34.675Z,955.16
2022-08-22T10:29:34.675Z,955.2
2022-08-22T10:30:34.680Z,955.21
2022-08-22T10:31:34.670Z,955.23
2022-08-22T10:32:34.668Z,955.26
2022-08-22T10:33:34.665Z,955.25
2022-08-22T10:34:34.664Z,955.28
2022-08-22T10:35:34.662Z,955.28
2022-08-22T10:36:34.663Z,955.28
2022-08-22T10:37:34.657Z,955.31
2022-08-22T10:38:36.139Z,955.28
2022-08-22T10:39:34.655Z,955.3
2022-08-22T10:40:34.653Z,955.31
2022-08-22T10:41:34.651Z,955.29
2022-08-22T10:42:35.207Z,955.27
2022-08-22T10:43:34.666Z,955.28
2022-08-22T10:44:34.650Z,955.25
2022-08-22T10:45:35.830Z,955.23
2022-08-22T10:46:34.641Z,955.25
2022-08-22T10:47:34.642Z,955.2
2022-08-22T10:48:35.013Z,955.27
2022-08-22T10:49:34.634Z,955.21
2022-08-22T10:50:34.635Z,955.23
2022-08-22T10:51:34.632Z,955.21
2022-08-22T10:52:34.632Z,955.25
2022-08-22T10:53:35.069Z,955.23
2022-08-22T10:54:34.630Z,955.27
2022-08-22T10:55:34.626Z,955.26
2022-08-22T10:56:34.626Z,955.25
2022-08-22T10:57:34.621Z,955.28
2022-08-22T10:58:34.622Z,955.24
2022-08-22T10:59:34.619Z,955.29
2022-08-22T11:00:34.654Z,955.31
2022-08-22T11:01:37.339Z,955.31
2022-08-22T11:02:34.614Z,955.31
2022-08-22T11:03:34.612Z,955.29
2022-08-22T11:04:34.610Z,955.3
2022-08-22T11:05:34.607Z,955.29
2022-08-22T11:06:34.608Z,955.31
2022-08-22T11:07:34.647Z,955.27
2022-08-22T11:08:35.021Z,955.27
2022-08-22T11:09:36.291Z,955.31
2022-08-22T11:10:34.886Z,955.32
2022-08-22T11:11:34.600Z,955.3
2022-08-22T11:12:35.099Z,955.31
2022-08-22T11:13:34.596Z,955.29
2022-08-22T11:14:34.599Z,955.29
2022-08-22T11:15:34.814Z,955.28
2022-08-22T11:16:36.664Z,955.29
2022-08-22T11:17:38.210Z,955.29
2022-08-22T11:18:34.594Z,955.27
2022-08-22T11:19:34.591Z,955.29
2022-08-22T11:20:34.593Z,955.26
2022-08-22T11:21:34.597Z,955.32
2022-08-22T11:22:34.588Z,955.34
2022-08-22T11:23:34.628Z,955.34
2022-08-22T11:24:36.197Z,955.3
2022-08-22T11:25:36.297Z,955.28
2022-08-22T11:26:41.353Z,955.28
2022-08-22T11:27:37.808Z,955.25
2022-08-22T11:28:34.582Z,955.23
2022-08-22T11:29:34.582Z,955.21
2022-08-22T11:30:36.322Z,955.23
2022-08-22T11:31:36.605Z,955.2
2022-08-22T11:32:34.612Z,955.21
2022-08-22T11:33:46.870Z,955.23
2022-08-22T11:34:34.575Z,955.24
2022-08-22T11:35:34.575Z,955.24
2022-08-22T11:36:34.573Z,955.19
2022-08-22T11:37:34.574Z,955.14
2022-08-22T11:38:34.571Z,955.16
2022-08-22T11:39:34.872Z,955.15
2022-08-22T11:40:34.866Z,955.05
2022-08-22T11:41:34.867Z,955.12
2022-08-22T11:42:34.866Z,955.06
2022-08-22T11:43:34.864Z,955.08
2022-08-22T11:44:34.878Z,955.05
2022-08-22T11:45:34.862Z,955.11
2022-08-22T11:46:34.862Z,955.06
2022-08-22T11:47:34.859Z,955.07
2022-08-22T11:48:34.857Z,955.1
2022-08-22T11:49:34.859Z,955.09
2022-08-22T11:50:35.179Z,955.06
2022-08-22T11:51:34.854Z,955.03
2022-08-22T11:52:34.853Z,954.99
2022-08-22T11:53:34.854Z,955.05
2022-08-22T11:54:34.850Z,955.08
2022-08-22T11:55:34.893Z,955.04
2022-08-22T11:56:34.845Z,955.06
2022-08-22T11:57:34.846Z,955.03
2022-08-22T11:58:34.844Z,955.01
2022-08-22T11:59:36.274Z,955.06
2022-08-22T12:00:34.844Z,955.06
2022-08-22T12:01:34.844Z,955
2022-08-22T12:02:34.890Z,954.99
2022-08-22T12:03:35.456Z,955
2022-08-22T12:04:34.836Z,955.01
2022-08-22T12:05:34.837Z,955.02
2022-08-22T12:06:34.868Z,955.02
2022-08-22T12:07:34.837Z,955
2022-08-22T12:08:34.839Z,955.01
2022-08-22T12:09:34.834Z,954.99
2022-08-22T12:10:34.832Z,954.99
2022-08-22T12:11:34.832Z,954.95
2022-08-22T12:12:34.829Z,954.95
2022-08-22T12:13:35.460Z,954.97
2022-08-22T12:14:34.831Z,954.94
2022-08-22T12:15:34.828Z,954.94
2022-08-22T12:16:34.824Z,954.92
2022-08-22T12:17:51.337Z,954.92
2022-08-22T12:18:34.830Z,954.92
2022-08-22T12:19:34.819Z,954.92
2022-08-22T12:20:34.819Z,954.89
2022-08-22T12:21:34.823Z,954.92
2022-08-22T12:22:34.821Z,954.89
2022-08-22T12:23:43.748Z,954.9
2022-08-22T12:24:34.822Z,954.91
2022-08-22T12:25:34.816Z,954.89
2022-08-22T12:26:34.821Z,954.91
2022-08-22T12:27:34.809Z,954.86
2022-08-22T12:28:34.813Z,954.89
2022-08-22T12:29:40.157Z,954.8
2022-08-22T12:30:34.813Z,954.8
2022-08-22T12:31:34.807Z,954.82
2022-08-22T12:32:34.810Z,954.78
2022-08-22T12:33:34.806Z,954.8
2022-08-22T12:34:34.804Z,954.81
2022-08-22T12:35:34.804Z,954.75
2022-08-22T12:36:34.803Z,954.76
2022-08-22T12:37:37.218Z,954.77
2022-08-22T12:38:37.789Z,954.72
2022-08-22T12:39:34.800Z,954.76
2022-08-22T12:40:36.380Z,954.76
2022-08-22T12:41:35.501Z,954.73
2022-08-22T12:42:34.796Z,954.75
2022-08-22T12:43:35.343Z,954.72
2022-08-22T12:44:34.793Z,954.72
2022-08-22T12:45:34.789Z,954.72
2022-08-22T12:46:34.790Z,954.72
2022-08-22T12:47:34.786Z,954.65
2022-08-22T12:48:34.789Z,954.64
2022-08-22T12:49:34.785Z,954.65
2022-08-22T12:50:34.784Z,954.65
2022-08-22T12:51:34.783Z,954.68
2022-08-22T12:52:34.781Z,954.64
2022-08-22T12:53:34.780Z,954.65
2022-08-22T12:54:34.779Z,954.62
2022-08-22T12:55:34.777Z,954.65
2022-08-22T12:56:34.776Z,954.67
2022-08-22T12:57:34.773Z,954.61
2022-08-22T12:58:35.079Z,954.62
2022-08-22T12:59:34.771Z,954.61
2022-08-22T13:00:34.851Z,954.56
2022-08-22T13:01:34.861Z,954.55
2022-08-22T13:02:34.769Z,954.59
2022-08-22T13:03:34.767Z,954.57
2022-08-22T13:04:34.773Z,954.59
2022-08-22T13:05:40.769Z,954.57
2022-08-22T13:06:34.762Z,954.55
2022-08-22T13:07:34.765Z,954.55
2022-08-22T13:08:34.771Z,954.6
2022-08-22T13:09:34.762Z,954.58
2022-08-22T13:10:34.760Z,954.58
2022-08-22T13:11:34.760Z,954.58
2022-08-22T13:12:34.760Z,954.58
2022-08-22T13:13:36.596Z,954.54
2022-08-22T13:14:34.756Z,954.56
2022-08-22T13:15:36.047Z,954.57
2022-08-22T13:16:34.753Z,954.59
2022-08-22T13:17:35.844Z,954.57
2022-08-22T13:18:35.673Z,954.55
2022-08-22T13:19:34.752Z,954.59
2022-08-22T13:20:34.749Z,954.54
2022-08-22T13:21:36.108Z,954.51
2022-08-22T13:22:34.747Z,954.54
2022-08-22T13:23:39.701Z,954.51
2022-08-22T13:24:38.375Z,954.52
2022-08-22T13:25:34.749Z,954.52
2022-08-22T13:26:35.818Z,954.46
2022-08-22T13:27:34.743Z,954.49
2022-08-22T13:28:34.743Z,954.5
2022-08-22T13:29:39.241Z,954.5
2022-08-22T13:30:34.738Z,954.55
2022-08-22T13:31:34.739Z,954.5
2022-08-22T13:32:34.737Z,954.5
2022-08-22T13:33:34.736Z,954.49
2022-08-22T13:34:38.575Z,954.49
2022-08-22T13:35:34.735Z,954.49
2022-08-22T13:36:34.731Z,954.49
2022-08-22T13:37:34.731Z,954.48
2022-08-22T13:38:34.730Z,954.51
2022-08-22T13:39:34.730Z,954.49
2022-08-22T13:40:34.727Z,954.57
2022-08-22T13:41:34.729Z,954.5
2022-08-22T13:42:34.724Z,954.49
2022-08-22T13:43:34.727Z,954.49
2022-08-22T13:44:34.722Z,954.49
2022-08-22T13:45:34.729Z,954.47
2022-08-22T13:46:35.397Z,954.46
2022-08-22T13:47:34.826Z,954.48
2022-08-22T13:48:34.716Z,954.45
2022-08-22T13:49:34.715Z,954.45
2022-08-22T13:50:35.905Z,954.44
2022-08-22T13:51:34.713Z,954.4
2022-08-22T13:52:35.988Z,954.4
2022-08-22T13:53:34.715Z,954.4
2022-08-22T13:54:38.997Z,954.41
2022-08-22T13:55:34.707Z,954.38
2022-08-22T13:56:34.707Z,954.41
2022-08-22T13:57:34.704Z,954.39
2022-08-22T13:58:34.703Z,954.41
2022-08-22T13:59:49.975Z,954.4
2022-08-22T14:00:34.699Z,954.38
2022-08-22T14:01:34.777Z,954.41
2022-08-22T14:02:34.694Z,954.38
2022-08-22T14:03:34.692Z,954.4
2022-08-22T14:04:35.740Z,954.4
2022-08-22T14:05:34.689Z,954.39
2022-08-22T14:06:37.593Z,954.39
2022-08-22T14:07:34.689Z,954.37
2022-08-22T14:08:34.686Z,954.38
2022-08-22T14:09:34.690Z,954.35
2022-08-22T14:10:34.682Z,954.38
2022-08-22T14:11:34.677Z,954.42
2022-08-22T14:12:50.397Z,954.39
2022-08-22T14:13:34.676Z,954.39
2022-08-22T14:14:34.937Z,954.39
2022-08-22T14:15:44.706Z,954.37
2022-08-22T14:16:34.930Z,954.39
2022-08-22T14:17:36.681Z,954.38
2022-08-22T14:18:34.927Z,954.34
2022-08-22T14:19:35.029Z,954.34
2022-08-22T14:20:34.923Z,954.4
2022-08-22T14:21:40.410Z,954.41
2022-08-22T14:22:35.669Z,954.4
2022-08-22T14:23:34.918Z,954.44
2022-08-22T14:24:34.912Z,954.4
2022-08-22T14:25:34.909Z,954.41
2022-08-22T14:26:37.146Z,954.46
2022-08-22T14:27:34.906Z,954.41
2022-08-22T14:28:34.903Z,954.37
2022-08-22T14:29:34.899Z,954.4
2022-08-22T14:30:34.899Z,954.38
2022-08-22T14:31:34.897Z,954.39
2022-08-22T14:32:35.161Z,954.41
2022-08-22T14:33:34.891Z,954.42
2022-08-22T14:34:34.890Z,954.42
2022-08-22T14:35:37.797Z,954.42
2022-08-22T14:36:34.884Z,954.42
2022-08-22T14:37:34.880Z,954.38
2022-08-22T14:38:34.879Z,954.41
2022-08-22T14:39:34.939Z,954.46
2022-08-22T14:40:34.876Z,954.48
2022-08-22T14:41:53.037Z,954.47
2022-08-22T14:42:34.870Z,954.45
2022-08-22T14:43:34.866Z,954.49
2022-08-22T14:44:34.864Z,954.48
2022-08-22T14:45:34.861Z,954.49
2022-08-22T14:46:34.859Z,954.48
2022-08-22T14:47:54.798Z,954.47
2022-08-22T14:48:45.260Z,954.45
2022-08-22T14:49:44.872Z,954.49
2022-08-22T14:50:44.868Z,954.51
2022-08-22T14:51:44.866Z,954.46
2022-08-22T14:52:44.862Z,954.48
2022-08-22T14:53:44.865Z,954.47
2022-08-22T14:54:44.858Z,954.44
2022-08-22T14:55:44.855Z,954.41
2022-08-22T14:56:44.853Z,954.43
2022-08-22T14:57:44.852Z,954.42
2022-08-22T14:58:44.844Z,954.44
2022-08-22T14:59:44.844Z,954.43
2022-08-22T15:00:44.920Z,954.43
2022-08-22T15:01:44.843Z,954.43
2022-08-22T15:02:44.832Z,954.38
2022-08-22T15:03:44.832Z,954.41
2022-08-22T15:04:45.805Z,954.43
2022-08-22T15:05:45.800Z,954.38
2022-08-22T15:06:47.959Z,954.42
2022-08-22T15:07:45.795Z,954.42
2022-08-22T15:08:46.348Z,954.42
2022-08-22T15:09:45.788Z,954.44
2022-08-22T15:10:45.784Z,954.45
2022-08-22T15:11:45.784Z,954.45
2022-08-22T15:12:45.777Z,954.47
2022-08-22T15:13:45.775Z,954.47
2022-08-22T15:14:48.928Z,954.47
2022-08-22T15:15:49.878Z,954.44
2022-08-22T15:16:45.764Z,954.45
2022-08-22T15:17:45.763Z,954.5
2022-08-22T15:18:51.645Z,954.5
2022-08-22T15:19:45.756Z,954.54
2022-08-22T15:20:49.280Z,954.5
2022-08-22T15:21:45.748Z,954.51
2022-08-22T15:22:45.743Z,954.54
2022-08-22T15:23:46.898Z,954.51
2022-08-22T15:24:45.738Z,954.54
2022-08-22T15:25:46.971Z,954.51
2022-08-22T15:26:48.606Z,954.51
2022-08-22T15:27:45.727Z,954.48
2022-08-22T15:28:52.416Z,954.51
2022-08-22T15:29:45.721Z,954.5
2022-08-22T15:30:45.720Z,954.5
2022-08-22T15:31:46.812Z,954.51
2022-08-22T15:32:45.710Z,954.49
2022-08-22T15:33:45.706Z,954.52
2022-08-22T15:34:45.700Z,954.51
2022-08-22T15:35:45.699Z,954.51
2022-08-22T15:36:45.695Z,954.51
2022-08-22T15:37:45.692Z,954.53
2022-08-22T15:38:45.803Z,954.5
2022-08-22T15:39:45.725Z,954.54
2022-08-22T15:40:45.837Z,954.51
2022-08-22T15:41:45.676Z,954.54
2022-08-22T15:42:45.674Z,954.51
2022-08-22T15:43:45.668Z,954.48
2022-08-22T15:44:45.674Z,954.5
2022-08-22T15:45:45.661Z,954.48
2022-08-22T15:46:45.661Z,954.48
2022-08-22T15:47:45.654Z,954.47
2022-08-22T15:48:49.182Z,954.47
2022-08-22T15:49:45.646Z,954.48
2022-08-22T15:50:45.643Z,954.45
2022-08-22T15:51:45.639Z,954.47
2022-08-22T15:52:45.637Z,954.49
2022-08-22T15:53:45.654Z,954.48
2022-08-22T15:54:47.011Z,954.47
2022-08-22T15:55:45.625Z,954.45
2022-08-22T15:56:45.622Z,954.46
2022-08-22T15:57:45.618Z,954.49
2022-08-22T15:58:48.220Z,954.48
2022-08-22T15:59:48.270Z,954.49
2022-08-22T16:00:45.708Z,954.46
2022-08-22T16:01:49.669Z,954.42
2022-08-22T16:02:45.599Z,954.47
2022-08-22T16:03:45.593Z,954.49
2022-08-22T16:04:45.592Z,954.45
2022-08-22T16:05:45.588Z,954.43
2022-08-22T16:06:45.585Z,954.42
2022-08-22T16:07:45.579Z,954.42
2022-08-22T16:08:45.578Z,954.4
2022-08-22T16:09:45.571Z,954.4
2022-08-22T16:10:45.571Z,954.43
2022-08-22T16:11:45.565Z,954.44
2022-08-22T16:12:45.561Z,954.44
2022-08-22T16:13:45.557Z,954.41
2022-08-22T16:14:45.555Z,954.39
2022-08-22T16:15:45.547Z,954.43
2022-08-22T16:16:45.547Z,954.39
2022-08-22T16:17:45.540Z,954.43
2022-08-22T16:18:45.537Z,954.4
2022-08-22T16:19:45.532Z,954.38
2022-08-22T16:20:45.529Z,954.41
2022-08-22T16:21:45.524Z,954.4
2022-08-22T16:22:47.355Z,954.4
2022-08-22T16:23:45.515Z,954.38
2022-08-22T16:24:45.515Z,954.36
2022-08-22T16:25:45.508Z,954.37
2022-08-22T16:26:45.505Z,954.41
2022-08-22T16:27:45.502Z,954.38
2022-08-22T16:28:57.667Z,954.34
2022-08-22T16:29:45.496Z,954.35
2022-08-22T16:30:45.488Z,954.31
2022-08-22T16:31:45.484Z,954.38
2022-08-22T16:32:45.496Z,954.36
2022-08-22T16:33:45.479Z,954.36
2022-08-22T16:34:45.472Z,954.38
2022-08-22T16:35:45.469Z,954.4
2022-08-22T16:36:45.463Z,954.39
2022-08-22T16:37:45.461Z,954.4
2022-08-22T16:38:45.455Z,954.36
2022-08-22T16:39:45.514Z,954.37
2022-08-22T16:40:45.447Z,954.36
2022-08-22T16:41:45.445Z,954.31
2022-08-22T16:42:45.440Z,954.39
2022-08-22T16:43:52.645Z,954.35
2022-08-22T16:44:45.434Z,954.35
2022-08-22T16:45:45.430Z,954.33
2022-08-22T16:46:45.425Z,954.3
2022-08-22T16:47:52.170Z,954.35
2022-08-22T16:48:45.416Z,954.37
2022-08-22T16:49:45.414Z,954.4
2022-08-22T16:50:47.617Z,954.38
2022-08-22T16:51:45.404Z,954.4
2022-08-22T16:52:45.400Z,954.4
2022-08-22T16:53:45.655Z,954.41
2022-08-22T16:54:45.391Z,954.39
2022-08-22T16:55:45.389Z,954.41
2022-08-22T16:56:45.385Z,954.47
2022-08-22T16:58:05.254Z,954.42
2022-08-22T16:58:57.681Z,954.45
2022-08-22T16:59:45.377Z,954.5
2022-08-22T17:00:45.370Z,954.49
2022-08-22T17:01:45.402Z,954.52
2022-08-22T17:02:45.359Z,954.52
2022-08-22T17:03:45.358Z,954.49
2022-08-22T17:04:45.351Z,954.52
2022-08-22T17:05:45.348Z,954.53